sensor_id;sensor_type;location;lat;lon;timestamp;temperature;humidity
26270;DHT22;15937;50.612;6.656;2022-12-19T00:01:47;2.50;99.90
26270;DHT22;15937;50.612;6.656;2022-12-19T00:05:49;2.40;99.90
26270;DHT22;15937;50.612;6.656;2022-12-19T00:09:50;2.40;99.90
26270;DHT22;15937;50.612;6.656;2022-12-19T00:13:52;2.50;99.90
26270;DHT22;15937;50.612;6.656;2022-12-19T00:17:53;2.50;99.90
26270;DHT22;15937;50.612;6.656;2022-12-19T00:21:55;2.60;99.90
26270;DHT22;15937;50.612;6.656;2022-12-19T00:26:11;2.60;99.90
26270;DHT22;15937;50.612;6.656;2022-12-19T00:30:13;2.80;99.90
26270;DHT22;15937;50.612;6.656;2022-12-19T00:34:15;3.00;99.90
26270;DHT22;15937;50.612;6.656;2022-12-19T00:38:16;3.20;99.90
26270;DHT22;15937;50.612;6.656;2022-12-19T00:42:18;3.50;99.90
26270;DHT22;15937;50.612;6.656;2022-12-19T00:46:20;3.60;99.90
26270;DHT22;15937;50.612;6.656;2022-12-19T00:50:22;3.70;99.90
26270;DHT22;15937;50.612;6.656;2022-12-19T00:54:23;3.80;99.90
26270;DHT22;15937;50.612;6.656;2022-12-19T00:58:25;3.90;99.90
26270;DHT22;15937;50.612;6.656;2022-12-19T01:02:27;4.00;99.90
26270;DHT22;15937;50.612;6.656;2022-12-19T01:06:29;4.00;99.90
26270;DHT22;15937;50.612;6.656;2022-12-19T01:10:31;4.10;99.90
26270;DHT22;15937;50.612;6.656;2022-12-19T01:14:33;4.20;99.90
26270;DHT22;15937;50.612;6.656;2022-12-19T01:18:34;4.30;99.90
26270;DHT22;15937;50.612;6.656;2022-12-19T01:22:36;4.40;99.90
26270;DHT22;15937;50.612;6.656;2022-12-19T01:26:38;4.30;99.90
26270;DHT22;15937;50.612;6.656;2022-12-19T01:30:40;4.30;99.90
26270;DHT22;15937;50.612;6.656;2022-12-19T01:34:42;4.20;99.90
26270;DHT22;15937;50.612;6.656;2022-12-19T01:38:43;4.30;99.90
26270;DHT22;15937;50.612;6.656;2022-12-19T01:42:45;4.20;99.90
26270;DHT22;15937;50.612;6.656;2022-12-19T01:46:47;4.30;99.90
26270;DHT22;15937;50.612;6.656;2022-12-19T01:51:00;4.40;99.90
26270;DHT22;15937;50.612;6.656;2022-12-19T01:55:03;4.40;99.90
26270;DHT22;15937;50.612;6.656;2022-12-19T01:59:09;4.40;99.90
26270;DHT22;15937;50.612;6.656;2022-12-19T02:07:20;4.40;99.90
26270;DHT22;15937;50.612;6.656;2022-12-19T02:11:22;4.60;99.90
26270;DHT22;15937;50.612;6.656;2022-12-19T02:15:25;4.70;99.90
26270;DHT22;15937;50.612;6.656;2022-12-19T02:32:17;4.80;99.90
26270;DHT22;15937;50.612;6.656;2022-12-19T02:36:21;4.80;99.90
26270;DHT22;15937;50.612;6.656;2022-12-19T02:40:26;4.70;99.90
26270;DHT22;15937;50.612;6.656;2022-12-19T02:44:39;4.70;99.90
26270;DHT22;15937;50.612;6.656;2022-12-19T02:48:41;4.70;99.90
26270;DHT22;15937;50.612;6.656;2022-12-19T02:52:44;4.70;99.90
26270;DHT22;15937;50.612;6.656;2022-12-19T02:57:06;4.70;99.90
26270;DHT22;15937;50.612;6.656;2022-12-19T03:01:12;4.70;99.90
26270;DHT22;15937;50.612;6.656;2022-12-19T03:13:56;4.90;99.90
26270;DHT22;15937;50.612;6.656;2022-12-19T03:17:59;4.80;99.90
26270;DHT22;15937;50.612;6.656;2022-12-19T03:22:01;4.90;99.90
26270;DHT22;15937;50.612;6.656;2022-12-19T03:26:06;4.80;99.90
26270;DHT22;15937;50.612;6.656;2022-12-19T03:30:10;4.90;99.90
26270;DHT22;15937;50.612;6.656;2022-12-19T03:34:35;4.90;99.90
26270;DHT22;15937;50.612;6.656;2022-12-19T03:38:34;5.00;99.90
26270;DHT22;15937;50.612;6.656;2022-12-19T03:42:38;5.00;99.90
26270;DHT22;15937;50.612;6.656;2022-12-19T03:47:43;5.00;99.90
26270;DHT22;15937;50.612;6.656;2022-12-19T03:55:36;5.00;99.90
26270;DHT22;15937;50.612;6.656;2022-12-19T03:59:54;4.90;99.90
26270;DHT22;15937;50.612;6.656;2022-12-19T04:03:56;4.90;99.90
26270;DHT22;15937;50.612;6.656;2022-12-19T04:07:59;4.90;99.90
26270;DHT22;15937;50.612;6.656;2022-12-19T04:12:03;4.90;99.90
26270;DHT22;15937;50.612;6.656;2022-12-19T04:20:27;4.90;99.90
26270;DHT22;15937;50.612;6.656;2022-12-19T04:24:41;5.00;99.90
26270;DHT22;15937;50.612;6.656;2022-12-19T04:32:45;5.20;99.90
26270;DHT22;15937;50.612;6.656;2022-12-19T04:36:48;5.30;99.90
26270;DHT22;15937;50.612;6.656;2022-12-19T04:40:51;5.40;99.90
26270;DHT22;15937;50.612;6.656;2022-12-19T04:44:52;5.50;99.90
26270;DHT22;15937;50.612;6.656;2022-12-19T04:48:54;5.50;99.90
26270;DHT22;15937;50.612;6.656;2022-12-19T04:52:56;5.50;99.90
26270;DHT22;15937;50.612;6.656;2022-12-19T04:56:57;5.60;99.90
26270;DHT22;15937;50.612;6.656;2022-12-19T05:01:03;5.60;99.90
26270;DHT22;15937;50.612;6.656;2022-12-19T05:05:05;5.60;99.90
26270;DHT22;15937;50.612;6.656;2022-12-19T05:09:08;5.70;99.90
26270;DHT22;15937;50.612;6.656;2022-12-19T05:13:10;5.80;99.90
26270;DHT22;15937;50.612;6.656;2022-12-19T05:17:12;5.90;99.90
26270;DHT22;15937;50.612;6.656;2022-12-19T05:21:14;6.10;99.90
26270;DHT22;15937;50.612;6.656;2022-12-19T05:25:16;6.10;99.90
26270;DHT22;15937;50.612;6.656;2022-12-19T05:29:18;6.10;99.90
26270;DHT22;15937;50.612;6.656;2022-12-19T05:33:19;6.00;99.90
26270;DHT22;15937;50.612;6.656;2022-12-19T05:37:21;6.20;99.90
26270;DHT22;15937;50.612;6.656;2022-12-19T05:41:23;6.40;99.90
26270;DHT22;15937;50.612;6.656;2022-12-19T05:45:24;6.80;99.90
26270;DHT22;15937;50.612;6.656;2022-12-19T05:49:32;6.70;99.90
26270;DHT22;15937;50.612;6.656;2022-12-19T05:53:37;6.90;99.90
26270;DHT22;15937;50.612;6.656;2022-12-19T05:57:56;6.90;99.90
26270;DHT22;15937;50.612;6.656;2022-12-19T06:02:04;6.90;99.90
26270;DHT22;15937;50.612;6.656;2022-12-19T06:06:17;7.00;99.90
26270;DHT22;15937;50.612;6.656;2022-12-19T06:10:19;7.00;99.90
26270;DHT22;15937;50.612;6.656;2022-12-19T06:14:21;7.00;99.90
26270;DHT22;15937;50.612;6.656;2022-12-19T06:18:24;7.10;99.90
26270;DHT22;15937;50.612;6.656;2022-12-19T06:22:25;7.20;99.90
26270;DHT22;15937;50.612;6.656;2022-12-19T06:26:27;7.20;99.90
26270;DHT22;15937;50.612;6.656;2022-12-19T06:30:29;7.30;99.90
26270;DHT22;15937;50.612;6.656;2022-12-19T06:34:31;7.20;99.90
26270;DHT22;15937;50.612;6.656;2022-12-19T06:38:53;7.30;99.90
26270;DHT22;15937;50.612;6.656;2022-12-19T06:42:55;7.20;99.90
26270;DHT22;15937;50.612;6.656;2022-12-19T06:46:57;7.20;99.90
26270;DHT22;15937;50.612;6.656;2022-12-19T06:50:58;7.20;99.90
26270;DHT22;15937;50.612;6.656;2022-12-19T06:55:00;7.30;99.90
26270;DHT22;15937;50.612;6.656;2022-12-19T06:59:02;7.20;99.90
26270;DHT22;15937;50.612;6.656;2022-12-19T07:03:04;7.30;99.90
26270;DHT22;15937;50.612;6.656;2022-12-19T07:07:06;7.30;99.90
26270;DHT22;15937;50.612;6.656;2022-12-19T07:11:08;7.50;99.90
26270;DHT22;15937;50.612;6.656;2022-12-19T07:15:10;7.60;99.90
26270;DHT22;15937;50.612;6.656;2022-12-19T07:19:12;7.60;99.90
26270;DHT22;15937;50.612;6.656;2022-12-19T07:23:15;7.70;99.90
26270;DHT22;15937;50.612;6.656;2022-12-19T07:27:18;7.90;99.90
26270;DHT22;15937;50.612;6.656;2022-12-19T07:31:19;8.00;99.90
26270;DHT22;15937;50.612;6.656;2022-12-19T07:35:21;8.00;99.90
26270;DHT22;15937;50.612;6.656;2022-12-19T07:39:23;8.10;99.90
26270;DHT22;15937;50.612;6.656;2022-12-19T07:43:25;8.20;99.90
26270;DHT22;15937;50.612;6.656;2022-12-19T07:47:27;8.10;99.90
26270;DHT22;15937;50.612;6.656;2022-12-19T07:51:28;8.10;99.90
26270;DHT22;15937;50.612;6.656;2022-12-19T07:55:31;8.20;99.90
26270;DHT22;15937;50.612;6.656;2022-12-19T07:59:33;8.10;99.90
26270;DHT22;15937;50.612;6.656;2022-12-19T08:03:39;8.10;99.90
26270;DHT22;15937;50.612;6.656;2022-12-19T08:07:41;8.00;99.90
26270;DHT22;15937;50.612;6.656;2022-12-19T08:11:43;8.00;99.90
26270;DHT22;15937;50.612;6.656;2022-12-19T08:15:45;7.90;99.90
26270;DHT22;15937;50.612;6.656;2022-12-19T08:19:46;7.90;99.90
26270;DHT22;15937;50.612;6.656;2022-12-19T08:23:48;7.90;99.90
26270;DHT22;15937;50.612;6.656;2022-12-19T08:27:50;7.90;99.90
26270;DHT22;15937;50.612;6.656;2022-12-19T08:31:51;7.80;99.90
26270;DHT22;15937;50.612;6.656;2022-12-19T08:35:53;7.70;99.90
26270;DHT22;15937;50.612;6.656;2022-12-19T08:39:55;7.70;99.90
26270;DHT22;15937;50.612;6.656;2022-12-19T08:43:57;7.70;99.90
26270;DHT22;15937;50.612;6.656;2022-12-19T08:48:00;7.80;99.90
26270;DHT22;15937;50.612;6.656;2022-12-19T08:52:01;7.70;99.90
26270;DHT22;15937;50.612;6.656;2022-12-19T08:56:04;7.80;99.90
26270;DHT22;15937;50.612;6.656;2022-12-19T09:00:08;7.90;99.90
26270;DHT22;15937;50.612;6.656;2022-12-19T09:04:10;8.00;99.90
26270;DHT22;15937;50.612;6.656;2022-12-19T09:08:32;8.10;99.90
26270;DHT22;15937;50.612;6.656;2022-12-19T09:12:34;8.10;99.90
26270;DHT22;15937;50.612;6.656;2022-12-19T09:16:35;8.10;99.90
26270;DHT22;15937;50.612;6.656;2022-12-19T09:20:37;8.10;99.90
26270;DHT22;15937;50.612;6.656;2022-12-19T09:24:39;8.10;99.90
26270;DHT22;15937;50.612;6.656;2022-12-19T09:28:41;8.20;99.90
26270;DHT22;15937;50.612;6.656;2022-12-19T09:32:43;8.20;99.90
26270;DHT22;15937;50.612;6.656;2022-12-19T09:36:44;8.20;99.90
26270;DHT22;15937;50.612;6.656;2022-12-19T09:45:23;8.10;99.90
26270;DHT22;15937;50.612;6.656;2022-12-19T09:49:35;8.20;99.90
26270;DHT22;15937;50.612;6.656;2022-12-19T09:58:05;8.40;99.90
26270;DHT22;15937;50.612;6.656;2022-12-19T10:06:29;8.50;99.90
26270;DHT22;15937;50.612;6.656;2022-12-19T10:11:08;8.60;99.90
26270;DHT22;15937;50.612;6.656;2022-12-19T10:15:41;8.70;99.90
26270;DHT22;15937;50.612;6.656;2022-12-19T10:32:46;8.70;99.90
26270;DHT22;15937;50.612;6.656;2022-12-19T10:36:55;8.60;99.90
26270;DHT22;15937;50.612;6.656;2022-12-19T10:41:22;8.70;99.90
26270;DHT22;15937;50.612;6.656;2022-12-19T10:45:27;8.60;99.90
26270;DHT22;15937;50.612;6.656;2022-12-19T10:49:31;8.60;99.90
26270;DHT22;15937;50.612;6.656;2022-12-19T10:53:32;8.60;99.90
26270;DHT22;15937;50.612;6.656;2022-12-19T10:57:34;8.60;99.90
26270;DHT22;15937;50.612;6.656;2022-12-19T11:01:37;8.60;99.90
26270;DHT22;15937;50.612;6.656;2022-12-19T11:05:47;8.60;99.90
26270;DHT22;15937;50.612;6.656;2022-12-19T11:09:58;8.80;99.90
26270;DHT22;15937;50.612;6.656;2022-12-19T11:14:21;8.80;99.90
26270;DHT22;15937;50.612;6.656;2022-12-19T11:18:44;8.80;99.90
26270;DHT22;15937;50.612;6.656;2022-12-19T11:23:10;8.90;99.90
26270;DHT22;15937;50.612;6.656;2022-12-19T11:32:00;8.90;99.90
26270;DHT22;15937;50.612;6.656;2022-12-19T11:36:29;8.90;99.90
26270;DHT22;15937;50.612;6.656;2022-12-19T11:40:50;9.00;99.90
26270;DHT22;15937;50.612;6.656;2022-12-19T11:49:08;9.20;99.90
26270;DHT22;15937;50.612;6.656;2022-12-19T11:53:15;9.40;99.90
26270;DHT22;15937;50.612;6.656;2022-12-19T11:57:20;9.40;99.90
26270;DHT22;15937;50.612;6.656;2022-12-19T12:32:18;9.50;99.90
26270;DHT22;15937;50.612;6.656;2022-12-19T12:45:55;9.70;99.90
26270;DHT22;15937;50.612;6.656;2022-12-19T12:49:59;9.80;99.90
26270;DHT22;15937;50.612;6.656;2022-12-19T12:54:02;9.80;99.90
26270;DHT22;15937;50.612;6.656;2022-12-19T13:02:28;9.80;99.90
26270;DHT22;15937;50.612;6.656;2022-12-19T13:06:35;9.70;99.90
26270;DHT22;15937;50.612;6.656;2022-12-19T13:10:37;9.70;99.90
26270;DHT22;15937;50.612;6.656;2022-12-19T13:14:40;9.70;99.90
26270;DHT22;15937;50.612;6.656;2022-12-19T13:18:42;9.90;99.90
26270;DHT22;15937;50.612;6.656;2022-12-19T13:23:04;9.80;99.90
26270;DHT22;15937;50.612;6.656;2022-12-19T13:31:19;9.70;99.90
26270;DHT22;15937;50.612;6.656;2022-12-19T13:44:11;9.80;99.90
26270;DHT22;15937;50.612;6.656;2022-12-19T13:48:14;9.80;99.90
26270;DHT22;15937;50.612;6.656;2022-12-19T13:52:17;9.80;99.90
26270;DHT22;15937;50.612;6.656;2022-12-19T13:56:19;9.80;99.90
26270;DHT22;15937;50.612;6.656;2022-12-19T14:00:33;9.80;99.90
26270;DHT22;15937;50.612;6.656;2022-12-19T14:04:38;9.80;99.90
26270;DHT22;15937;50.612;6.656;2022-12-19T14:08:41;9.80;99.90
26270;DHT22;15937;50.612;6.656;2022-12-19T14:12:45;9.80;99.90
26270;DHT22;15937;50.612;6.656;2022-12-19T14:17:27;9.80;99.90
26270;DHT22;15937;50.612;6.656;2022-12-19T14:21:29;9.80;99.90
26270;DHT22;15937;50.612;6.656;2022-12-19T14:25:52;9.90;99.90
26270;DHT22;15937;50.612;6.656;2022-12-19T14:30:18;9.80;99.90
26270;DHT22;15937;50.612;6.656;2022-12-19T14:34:32;9.80;99.90
26270;DHT22;15937;50.612;6.656;2022-12-19T14:38:56;9.80;99.90
26270;DHT22;15937;50.612;6.656;2022-12-19T14:43:22;9.80;99.90
26270;DHT22;15937;50.612;6.656;2022-12-19T14:48:00;9.60;99.90
26270;DHT22;15937;50.612;6.656;2022-12-19T14:52:41;9.80;99.90
26270;DHT22;15937;50.612;6.656;2022-12-19T14:57:03;9.70;99.90
26270;DHT22;15937;50.612;6.656;2022-12-19T15:01:06;9.90;99.90
26270;DHT22;15937;50.612;6.656;2022-12-19T15:05:24;9.60;99.90
26270;DHT22;15937;50.612;6.656;2022-12-19T15:09:26;9.40;99.90
26270;DHT22;15937;50.612;6.656;2022-12-19T15:13:52;9.40;99.90
26270;DHT22;15937;50.612;6.656;2022-12-19T15:22:31;9.40;99.90
26270;DHT22;15937;50.612;6.656;2022-12-19T15:26:33;9.50;99.90
26270;DHT22;15937;50.612;6.656;2022-12-19T15:30:35;9.50;99.90
26270;DHT22;15937;50.612;6.656;2022-12-19T15:34:38;9.30;99.90
26270;DHT22;15937;50.612;6.656;2022-12-19T15:38:51;9.30;99.90
26270;DHT22;15937;50.612;6.656;2022-12-19T15:42:53;9.20;99.90
26270;DHT22;15937;50.612;6.656;2022-12-19T15:46:57;9.10;99.90
26270;DHT22;15937;50.612;6.656;2022-12-19T15:50:58;9.00;99.90
26270;DHT22;15937;50.612;6.656;2022-12-19T15:55:00;9.10;99.90
26270;DHT22;15937;50.612;6.656;2022-12-19T15:59:02;9.10;99.90
26270;DHT22;15937;50.612;6.656;2022-12-19T16:03:04;9.20;99.90
26270;DHT22;15937;50.612;6.656;2022-12-19T16:07:24;9.10;99.90
26270;DHT22;15937;50.612;6.656;2022-12-19T16:11:26;9.10;99.90
26270;DHT22;15937;50.612;6.656;2022-12-19T16:15:29;9.00;99.90
26270;DHT22;15937;50.612;6.656;2022-12-19T16:19:32;9.20;99.90
26270;DHT22;15937;50.612;6.656;2022-12-19T16:23:33;9.30;99.90
26270;DHT22;15937;50.612;6.656;2022-12-19T16:27:35;9.50;99.90
26270;DHT22;15937;50.612;6.656;2022-12-19T16:31:36;9.50;99.90
26270;DHT22;15937;50.612;6.656;2022-12-19T16:35:38;9.50;99.90
26270;DHT22;15937;50.612;6.656;2022-12-19T16:40:00;9.50;99.90
26270;DHT22;15937;50.612;6.656;2022-12-19T16:44:02;9.40;99.90
26270;DHT22;15937;50.612;6.656;2022-12-19T16:48:24;9.40;99.90
26270;DHT22;15937;50.612;6.656;2022-12-19T16:52:26;9.50;99.90
26270;DHT22;15937;50.612;6.656;2022-12-19T16:56:35;9.50;99.90
26270;DHT22;15937;50.612;6.656;2022-12-19T17:00:37;9.70;99.90
26270;DHT22;15937;50.612;6.656;2022-12-19T17:04:39;9.70;99.90
26270;DHT22;15937;50.612;6.656;2022-12-19T17:08:43;9.70;99.90
26270;DHT22;15937;50.612;6.656;2022-12-19T17:12:45;9.60;99.90
26270;DHT22;15937;50.612;6.656;2022-12-19T17:16:47;9.70;99.90
26270;DHT22;15937;50.612;6.656;2022-12-19T17:20:49;9.70;99.90
26270;DHT22;15937;50.612;6.656;2022-12-19T17:24:51;9.60;99.90
26270;DHT22;15937;50.612;6.656;2022-12-19T17:28:52;9.60;99.90
26270;DHT22;15937;50.612;6.656;2022-12-19T17:32:56;9.60;99.90
26270;DHT22;15937;50.612;6.656;2022-12-19T17:36:58;9.60;99.90
26270;DHT22;15937;50.612;6.656;2022-12-19T17:41:00;9.60;99.90
26270;DHT22;15937;50.612;6.656;2022-12-19T17:45:02;9.60;99.90
26270;DHT22;15937;50.612;6.656;2022-12-19T17:49:04;9.60;99.90
26270;DHT22;15937;50.612;6.656;2022-12-19T17:53:12;9.60;99.90
26270;DHT22;15937;50.612;6.656;2022-12-19T17:57:15;9.60;99.90
26270;DHT22;15937;50.612;6.656;2022-12-19T18:01:22;9.70;99.90
26270;DHT22;15937;50.612;6.656;2022-12-19T18:05:28;9.70;99.90
26270;DHT22;15937;50.612;6.656;2022-12-19T18:09:32;9.70;99.90
26270;DHT22;15937;50.612;6.656;2022-12-19T18:13:33;9.70;99.90
26270;DHT22;15937;50.612;6.656;2022-12-19T18:17:35;9.80;99.90
26270;DHT22;15937;50.612;6.656;2022-12-19T18:21:38;9.70;99.90
26270;DHT22;15937;50.612;6.656;2022-12-19T18:25:39;9.80;99.90
26270;DHT22;15937;50.612;6.656;2022-12-19T18:29:41;9.80;99.90
26270;DHT22;15937;50.612;6.656;2022-12-19T18:33:44;9.80;99.90
26270;DHT22;15937;50.612;6.656;2022-12-19T18:37:47;9.80;99.90
26270;DHT22;15937;50.612;6.656;2022-12-19T18:41:49;9.90;99.90
26270;DHT22;15937;50.612;6.656;2022-12-19T18:45:51;9.90;99.90
26270;DHT22;15937;50.612;6.656;2022-12-19T18:49:53;9.90;99.90
26270;DHT22;15937;50.612;6.656;2022-12-19T18:53:55;9.90;99.90
26270;DHT22;15937;50.612;6.656;2022-12-19T18:57:57;9.90;99.90
26270;DHT22;15937;50.612;6.656;2022-12-19T19:01:58;9.90;99.90
26270;DHT22;15937;50.612;6.656;2022-12-19T19:06:00;9.90;99.90
26270;DHT22;15937;50.612;6.656;2022-12-19T19:10:25;10.00;99.90
26270;DHT22;15937;50.612;6.656;2022-12-19T19:14:28;10.00;99.90
26270;DHT22;15937;50.612;6.656;2022-12-19T19:18:36;10.00;99.90
26270;DHT22;15937;50.612;6.656;2022-12-19T19:22:38;10.20;99.90
26270;DHT22;15937;50.612;6.656;2022-12-19T19:26:40;10.10;99.90
26270;DHT22;15937;50.612;6.656;2022-12-19T19:30:41;10.20;99.90
26270;DHT22;15937;50.612;6.656;2022-12-19T19:34:43;10.40;99.90
26270;DHT22;15937;50.612;6.656;2022-12-19T19:38:46;10.40;99.90
26270;DHT22;15937;50.612;6.656;2022-12-19T19:42:49;10.30;99.90
26270;DHT22;15937;50.612;6.656;2022-12-19T19:46:50;10.30;99.90
26270;DHT22;15937;50.612;6.656;2022-12-19T19:50:52;10.10;99.90
26270;DHT22;15937;50.612;6.656;2022-12-19T19:54:54;10.10;99.90
26270;DHT22;15937;50.612;6.656;2022-12-19T19:58:56;10.20;99.90
26270;DHT22;15937;50.612;6.656;2022-12-19T20:02:59;10.20;99.90
26270;DHT22;15937;50.612;6.656;2022-12-19T20:07:07;10.30;99.90
26270;DHT22;15937;50.612;6.656;2022-12-19T20:11:09;10.30;99.90
26270;DHT22;15937;50.612;6.656;2022-12-19T20:15:11;10.20;99.90
26270;DHT22;15937;50.612;6.656;2022-12-19T20:19:12;10.20;99.90
26270;DHT22;15937;50.612;6.656;2022-12-19T20:23:16;10.20;99.90
26270;DHT22;15937;50.612;6.656;2022-12-19T20:27:17;10.20;99.90
26270;DHT22;15937;50.612;6.656;2022-12-19T20:31:20;10.20;99.90
26270;DHT22;15937;50.612;6.656;2022-12-19T20:35:22;10.10;99.90
26270;DHT22;15937;50.612;6.656;2022-12-19T20:39:24;10.10;99.90
26270;DHT22;15937;50.612;6.656;2022-12-19T20:43:26;10.20;99.90
26270;DHT22;15937;50.612;6.656;2022-12-19T20:47:27;10.20;99.90
26270;DHT22;15937;50.612;6.656;2022-12-19T20:51:29;10.30;99.90
26270;DHT22;15937;50.612;6.656;2022-12-19T20:55:30;10.40;99.90
26270;DHT22;15937;50.612;6.656;2022-12-19T20:59:32;10.30;99.90
26270;DHT22;15937;50.612;6.656;2022-12-19T21:03:34;10.30;99.90
26270;DHT22;15937;50.612;6.656;2022-12-19T21:07:36;10.40;99.90
26270;DHT22;15937;50.612;6.656;2022-12-19T21:11:38;10.40;99.90
26270;DHT22;15937;50.612;6.656;2022-12-19T21:15:40;10.40;99.90
26270;DHT22;15937;50.612;6.656;2022-12-19T21:19:41;10.40;99.90
26270;DHT22;15937;50.612;6.656;2022-12-19T21:23:43;10.40;99.90
26270;DHT22;15937;50.612;6.656;2022-12-19T21:27:45;10.50;99.90
26270;DHT22;15937;50.612;6.656;2022-12-19T21:31:47;10.50;99.90
26270;DHT22;15937;50.612;6.656;2022-12-19T21:35:49;10.50;99.90
26270;DHT22;15937;50.612;6.656;2022-12-19T21:39:51;10.50;99.90
26270;DHT22;15937;50.612;6.656;2022-12-19T21:43:53;10.50;99.90
26270;DHT22;15937;50.612;6.656;2022-12-19T21:47:55;10.70;99.90
26270;DHT22;15937;50.612;6.656;2022-12-19T21:51:59;10.70;99.90
26270;DHT22;15937;50.612;6.656;2022-12-19T21:56:35;10.80;99.90
26270;DHT22;15937;50.612;6.656;2022-12-19T22:00:29;10.90;99.90
26270;DHT22;15937;50.612;6.656;2022-12-19T22:04:30;10.90;99.90
26270;DHT22;15937;50.612;6.656;2022-12-19T22:08:32;10.90;99.90
26270;DHT22;15937;50.612;6.656;2022-12-19T22:12:34;10.80;99.90
26270;DHT22;15937;50.612;6.656;2022-12-19T22:16:36;10.80;99.90
26270;DHT22;15937;50.612;6.656;2022-12-19T22:20:41;10.70;99.90
26270;DHT22;15937;50.612;6.656;2022-12-19T22:24:43;10.70;99.90
26270;DHT22;15937;50.612;6.656;2022-12-19T22:28:45;10.70;99.90
26270;DHT22;15937;50.612;6.656;2022-12-19T22:32:47;10.80;99.90
26270;DHT22;15937;50.612;6.656;2022-12-19T22:36:49;10.90;99.90
26270;DHT22;15937;50.612;6.656;2022-12-19T22:40:50;10.80;99.90
26270;DHT22;15937;50.612;6.656;2022-12-19T22:44:52;10.80;99.90
26270;DHT22;15937;50.612;6.656;2022-12-19T22:48:55;10.90;99.90
26270;DHT22;15937;50.612;6.656;2022-12-19T22:52:57;10.90;99.90
26270;DHT22;15937;50.612;6.656;2022-12-19T22:56:58;10.90;99.90
26270;DHT22;15937;50.612;6.656;2022-12-19T23:01:01;10.80;99.90
26270;DHT22;15937;50.612;6.656;2022-12-19T23:05:03;10.90;99.90
26270;DHT22;15937;50.612;6.656;2022-12-19T23:09:05;11.00;99.90
26270;DHT22;15937;50.612;6.656;2022-12-19T23:13:07;11.00;99.90
26270;DHT22;15937;50.612;6.656;2022-12-19T23:17:09;11.00;99.90
26270;DHT22;15937;50.612;6.656;2022-12-19T23:21:12;11.00;99.90
26270;DHT22;15937;50.612;6.656;2022-12-19T23:25:14;10.90;99.90
26270;DHT22;15937;50.612;6.656;2022-12-19T23:29:16;10.90;99.90
26270;DHT22;15937;50.612;6.656;2022-12-19T23:33:17;10.80;99.90
26270;DHT22;15937;50.612;6.656;2022-12-19T23:37:19;10.90;99.90
26270;DHT22;15937;50.612;6.656;2022-12-19T23:41:21;10.80;99.90
26270;DHT22;15937;50.612;6.656;2022-12-19T23:45:23;10.80;99.90
26270;DHT22;15937;50.612;6.656;2022-12-19T23:49:26;10.70;99.90
26270;DHT22;15937;50.612;6.656;2022-12-19T23:53:27;10.70;99.90
26270;DHT22;15937;50.612;6.656;2022-12-19T23:57:29;10.60;99.90
